Needmore, Pennsylvania
Current Conditions -  °F | °C
As of 4:53 PM on Friday 31 Oct 2014 (Local Time) from KHGR Reporting Station
Overcast Overcast  
Wind Chill: 52°   Ceiling: 5500
Heat Index: 52°   Visibility: 10mi
Dew Point: 34°   Wind: 5mph
Humidity: 50%   Direction: 70°ENE
Pressure: 29.87"   Gusts: NA
Location:  39.85°N, 78.14°W
Report Text: KHGR 312053Z 07004KT 10SM OVC055 11/01 A2987 RMK AO2 SLP126 T01110011 55012
Loading
Personal Weather Stations






























Interactive Weather Map
Tropical Storm Tracking
New forecast layout! Learn more

10-Day Weather Forecast

Advertisements
Track Severe Weather on mobile